Historique des mesures à Cassis (13260), France
Quotidien Résumé Avril 10, 2017 Unités:  Métrique    US   Métrique/US
« Précédent (Jour)
Suivant (Jour) »
Quotidien Hebdomadaire Mensuel Annuel Période au choix
  Maximum: Minimum: Moyenne:
Température: TemperatureC °C 12.8 °C 15.6 °C
Point de rosée: DewpointC °C 5.2 °C 9.4 °C
Humidité: Humidity % 57 % 64 %
Vitesse du vent: 0 km/h 0 km/h 3.2 km/h
Rafales: 0 km/h - -
Vent:- - SE
Pression: PressurehPa hPa 1016.8 hPa -
Précipitations: 0.0 mm    
Historical Graphs
 
 
Mesures pour : Avril 10, 2017
Heure Temperature Point de rosée Pression Vent Vitesse du vent Rafales Humidité Pluie (par heure) Conditions
TemperatureC °C DewpointC °C PressurehPa hPa Calm     Humidity % HourlyPrecipMM mm SoftwareType W/m2
00:11 14.4 °C 6.8 °C 1021.6 hPa NNE 2.3 km/h 2.3 km/h 60 % 0.0 mm open2300-1.11 W/m2
01:11 14.2 °C 7.2 °C 1021.6 hPa Calm     63 % 0.0 mm open2300-1.11 W/m2
02:11 13.8 °C 7.1 °C 1021.2 hPa Calm     64 % 0.0 mm open2300-1.11 W/m2
03:11 13.9 °C 6.9 °C 1020.5 hPa NNW 4.7 km/h 4.7 km/h 63 % 0.0 mm open2300-1.11 W/m2
04:11 13.9 °C 6.7 °C 1020.2 hPa North 9.8 km/h 9.8 km/h 62 % 0.0 mm open2300-1.11 W/m2
05:11 13.6 °C 6.2 °C 1019.9 hPa Calm     61 % 0.0 mm open2300-1.11 W/m2
06:11 13.3 °C 5.9 °C 1019.9 hPa Calm     61 % 0.0 mm open2300-1.11 W/m2
07:11 12.8 °C 5.2 °C 1019.9 hPa Calm     60 % 0.0 mm open2300-1.11 W/m2
08:11 13.4 °C 5.6 °C 1019.9 hPa ENE 2.3 km/h 2.3 km/h 59 % 0.0 mm open2300-1.11 W/m2
09:11 15.3 °C 7.1 °C 1019.9 hPa South 2.3 km/h 4.2 km/h 58 % 0.0 mm open2300-1.11 W/m2
10:11 16.1 °C 7.6 °C 1019.9 hPa SE 1.8 km/h 8 km/h 57 % 0.0 mm open2300-1.11 W/m2
11:11 18.1 °C 11.2 °C 1020.2 hPa SE 14 km/h 14 km/h 64 % 0.0 mm open2300-1.11 W/m2
12:11 19.8 °C 12.5 °C 1020.2 hPa SSE 5.6 km/h 5.6 km/h 63 % 0.0 mm open2300-1.11 W/m2
13:11 20.2 °C 13.2 °C 1019.5 hPa SSE 6.9 km/h 10.3 km/h 64 % 0.0 mm open2300-1.11 W/m2
14:11 20.3 °C 13.7 °C 1019.2 hPa SE 6.4 km/h 19.6 km/h 66 % 0.0 mm open2300-1.11 W/m2
15:11 19.9 °C 13.8 °C 1018.5 hPa SSE 6.4 km/h 6.4 km/h 68 % 0.0 mm open2300-1.11 W/m2
16:11 19.6 °C 14.0 °C 1017.8 hPa SE 10.3 km/h 19.2 km/h 70 % 0.0 mm open2300-1.11 W/m2
17:11 18.8 °C 13.6 °C 1017.5 hPa SE 4.2 km/h 9.3 km/h 72 % 0.0 mm open2300-1.11 W/m2
18:11 17.9 °C 13.0 °C 1017.2 hPa Calm   6.4 km/h 73 % 0.0 mm open2300-1.11 W/m2
19:11 17.3 °C 12.6 °C 1016.8 hPa SE 5.1 km/h 5.1 km/h 74 % 0.0 mm open2300-1.11 W/m2
20:11 16.7 °C 12.4 °C 1016.8 hPa Calm   6.4 km/h 76 % 0.0 mm open2300-1.11 W/m2
21:11 15.9 °C 11.9 °C 1016.8 hPa Calm     77 % 0.0 mm open2300-1.11 W/m2
22:11 15.2 °C 11.6 °C 1016.8 hPa Calm     79 % 0.0 mm open2300-1.11 W/m2
23:11 14.8 °C 10.0 °C 1016.8 hPa Calm     73 % 0.0 mm open2300-1.11 W/m2
Observations météo à CASSIS
WU-History script by Weather Underground - 1 mb